Time;durP1;ratioP1;P1;durP2;ratioP2;P2;SDS_P1;SDS_P2;PMS_P1;PMS_P2;Temp;Humidity;BMP_temperature;BMP_pressure;BME280_temperature;BME280_humidity;BME280_pressure;Samples;Min_cycle;Max_cycle;Signal;HPM_P1;HPM_P2
2022/02/01 00:02:03;;;;;;;;;9.75;4.75;;;;;;;;5038476;28;11486;-76
2022/02/01 00:04:37;;;;;;;;;8.50;6.25;;;;;;;;5045028;28;11602;-76
2022/02/01 00:07:14;;;;;;;;;9.00;7.50;;;;;;;;5041587;28;11649;-77
2022/02/01 00:09:52;;;;;;;;;8.00;5.00;;;;;;;;5045768;28;11555;-76
2022/02/01 00:12:29;;;;;;;;;5.00;5.00;;;;;;;;5045908;28;12303;-77
2022/02/01 00:15:18;;;;;;;;;6.25;6.25;;;;;;;;5044491;28;11679;-76
2022/02/01 00:20:50;;;;;;;;;10.75;8.50;;;;;;;;5037890;28;11540;-75
2022/02/01 00:34:43;;;;;;;;;3.75;2.50;;;;;;;;5043176;28;12351;-75
2022/02/01 00:37:16;;;;;;;;;8.25;7.00;;;;;;;;5033332;28;12303;-75
2022/02/01 00:39:45;;;;;;;;;11.75;5.00;;;;;;;;5044760;28;11581;-76
2022/02/01 00:42:15;;;;;;;;;5.75;5.75;;;;;;;;5040128;28;11565;-76
2022/02/01 00:44:43;;;;;;;;;6.50;6.50;;;;;;;;5044978;28;11662;-76
2022/02/01 00:47:11;;;;;;;;;5.00;5.00;;;;;;;;5044948;28;11500;-77
2022/02/01 00:49:38;;;;;;;;;6.33;6.33;;;;;;;;5043272;28;12407;-76
2022/02/01 00:52:06;;;;;;;;;12.00;11.00;;;;;;;;5045207;28;11536;-76
2022/02/01 00:54:34;;;;;;;;;6.00;6.00;;;;;;;;5035009;28;11695;-76
2022/02/01 00:57:01;;;;;;;;;7.67;7.67;;;;;;;;5044645;28;11536;-76
2022/02/01 00:59:30;;;;;;;;;8.00;5.33;;;;;;;;5044987;28;11636;-76
2022/02/01 01:01:57;;;;;;;;;11.00;8.00;;;;;;;;5059587;28;11462;-76
2022/02/01 01:04:25;;;;;;;;;14.00;8.00;;;;;;;;5064202;28;11654;-76
2022/02/01 01:06:52;;;;;;;;;6.67;5.00;;;;;;;;5061159;28;11517;-76
2022/02/01 01:09:19;;;;;;;;;7.00;7.00;;;;;;;;5065186;28;11486;-76
2022/02/01 01:11:51;;;;;;;;;7.33;7.00;;;;;;;;5059962;28;11521;-77
2022/02/01 01:14:47;;;;;;;;;5.00;5.00;;;;;;;;5061681;28;11549;-76
2022/02/01 01:44:52;;;;;;;;;6.33;6.33;;;;;;;;5056076;28;11503;-76
2022/02/01 01:53:18;;;;;;;;;14.75;9.00;;;;;;;;5054295;28;11526;-78
2022/02/01 01:55:49;;;;;;;;;11.25;9.00;;;;;;;;5062329;28;11650;-76
2022/02/01 01:58:17;;;;;;;;;8.00;8.00;;;;;;;;5062600;28;11611;-76
2022/02/01 02:03:28;;;;;;;;;8.25;6.50;;;;;;;;5055083;28;11567;-75
2022/02/01 02:05:57;;;;;;;;;8.00;8.00;;;;;;;;5058606;28;11522;-76
2022/02/01 02:08:24;;;;;;;;;8.50;8.50;;;;;;;;5060393;28;12509;-75
2022/02/01 02:10:57;;;;;;;;;6.25;6.25;;;;;;;;5059598;28;11623;-76
2022/02/01 02:16:10;;;;;;;;;7.50;5.25;;;;;;;;5058378;28;11496;-76
2022/02/01 02:18:37;;;;;;;;;6.25;6.25;;;;;;;;5062181;28;11520;-76
2022/02/01 02:21:06;;;;;;;;;4.25;4.25;;;;;;;;5057634;28;11520;-76
2022/02/01 02:23:34;;;;;;;;;8.25;8.00;;;;;;;;5062279;28;11631;-76
2022/02/01 02:26:07;;;;;;;;;8.25;8.25;;;;;;;;5062880;28;11548;-75
2022/02/01 02:28:36;;;;;;;;;6.50;6.50;;;;;;;;5063209;28;12338;-76
2022/02/01 02:31:03;;;;;;;;;10.00;7.00;;;;;;;;5055072;28;11497;-75
2022/02/01 02:33:32;;;;;;;;;9.00;9.00;;;;;;;;5053594;28;11518;-77
2022/02/01 02:36:04;;;;;;;;;11.00;9.00;;;;;;;;5061855;28;11545;-75
2022/02/01 02:38:38;;;;;;;;;15.25;9.75;;;;;;;;5057084;28;11647;-76
2022/02/01 02:46:38;;;;;;;;;9.50;9.00;;;;;;;;5057097;28;11489;-76
2022/02/01 02:49:06;;;;;;;;;11.75;8.00;;;;;;;;5063629;28;11507;-76
2022/02/01 02:51:34;;;;;;;;;9.00;9.00;;;;;;;;5062951;28;11518;-76
2022/02/01 02:54:06;;;;;;;;;16.50;9.75;;;;;;;;5061038;28;11650;-77
2022/02/01 02:56:33;;;;;;;;;15.75;11.25;;;;;;;;5066263;28;11532;-76
2022/02/01 02:59:01;;;;;;;;;16.50;14.00;;;;;;;;5062226;28;11555;-76
2022/02/01 03:01:28;;;;;;;;;14.75;14.75;;;;;;;;5061613;28;11532;-75
2022/02/01 03:03:56;;;;;;;;;12.00;12.00;;;;;;;;5060285;28;12192;-76
2022/02/01 03:06:23;;;;;;;;;12.25;10.75;;;;;;;;5064622;28;11517;-76
2022/02/01 03:08:51;;;;;;;;;16.00;12.25;;;;;;;;5060228;28;11542;-76
2022/02/01 03:11:20;;;;;;;;;12.00;12.00;;;;;;;;5057350;28;11680;-76
2022/02/01 03:13:51;;;;;;;;;17.50;12.75;;;;;;;;5062559;28;11715;-75
2022/02/01 03:21:45;;;;;;;;;12.50;11.25;;;;;;;;5060494;28;11557;-76
2022/02/01 03:24:12;;;;;;;;;9.00;9.00;;;;;;;;5062833;28;11561;-76
2022/02/01 03:26:41;;;;;;;;;5.50;5.50;;;;;;;;5060411;28;11514;-76
2022/02/01 03:29:08;;;;;;;;;11.75;10.25;;;;;;;;5062220;28;12337;-76
2022/02/01 03:31:35;;;;;;;;;8.75;6.50;;;;;;;;5059507;28;12802;-76
2022/02/01 03:34:03;;;;;;;;;11.00;8.25;;;;;;;;5062463;28;11503;-77
2022/02/01 03:36:30;;;;;;;;;11.00;10.25;;;;;;;;5062497;28;11668;-75
2022/02/01 03:38:58;;;;;;;;;18.00;11.00;;;;;;;;5061080;28;11540;-75
2022/02/01 03:41:25;;;;;;;;;11.50;9.75;;;;;;;;5057600;28;11563;-75
2022/02/01 03:43:55;;;;;;;;;13.75;9.75;;;;;;;;5060358;28;11548;-76
2022/02/01 03:46:22;;;;;;;;;8.50;8.50;;;;;;;;5068692;28;11540;-76
2022/02/01 03:48:50;;;;;;;;;12.25;9.00;;;;;;;;5060591;28;11552;-76
2022/02/01 03:51:18;;;;;;;;;8.00;8.00;;;;;;;;5060898;28;11595;-76
2022/02/01 03:53:45;;;;;;;;;8.00;8.00;;;;;;;;5058950;28;11528;-76
2022/02/01 03:56:13;;;;;;;;;8.50;8.50;;;;;;;;5061224;28;11625;-77
2022/02/01 03:58:40;;;;;;;;;6.00;6.00;;;;;;;;5062413;28;11518;-76
2022/02/01 04:01:09;;;;;;;;;7.00;7.00;;;;;;;;5054152;28;11452;-77
2022/02/01 04:03:36;;;;;;;;;8.25;6.00;;;;;;;;5060812;28;11509;-76
2022/02/01 04:06:04;;;;;;;;;6.00;6.00;;;;;;;;5059247;28;11524;-76
2022/02/01 04:08:31;;;;;;;;;5.25;5.00;;;;;;;;5062378;28;11533;-76
2022/02/01 04:10:58;;;;;;;;;12.25;6.50;;;;;;;;5060384;28;11526;-76
2022/02/01 04:13:26;;;;;;;;;6.00;6.00;;;;;;;;5061529;28;11664;-76
2022/02/01 04:15:53;;;;;;;;;8.25;5.50;;;;;;;;5065349;28;11626;-77
2022/02/01 04:18:22;;;;;;;;;8.50;7.50;;;;;;;;5063642;28;11510;-76
2022/02/01 04:20:50;;;;;;;;;9.50;8.00;;;;;;;;5062879;28;11623;-75
2022/02/01 04:23:17;;;;;;;;;8.00;8.00;;;;;;;;5062794;28;12379;-76
2022/02/01 04:25:46;;;;;;;;;12.75;10.00;;;;;;;;5065579;28;11525;-76
2022/02/01 04:28:14;;;;;;;;;8.25;8.25;;;;;;;;5064589;28;11627;-77
2022/02/01 04:30:41;;;;;;;;;10.75;8.25;;;;;;;;5064177;28;12189;-76
2022/02/01 04:33:08;;;;;;;;;8.00;8.00;;;;;;;;5064664;28;11638;-75
2022/02/01 04:35:37;;;;;;;;;9.75;9.75;;;;;;;;5060316;28;11487;-75
2022/02/01 04:38:04;;;;;;;;;6.00;6.00;;;;;;;;5065574;28;11628;-76
2022/02/01 04:40:34;;;;;;;;;9.75;9.75;;;;;;;;5064563;28;12539;-76
2022/02/01 04:43:03;;;;;;;;;11.00;5.75;;;;;;;;5065467;28;11516;-76
2022/02/01 04:45:30;;;;;;;;;10.00;6.00;;;;;;;;5064544;28;12324;-76
2022/02/01 04:47:57;;;;;;;;;6.00;6.00;;;;;;;;5064569;28;12287;-76
2022/02/01 04:50:26;;;;;;;;;9.75;9.75;;;;;;;;5063850;28;11514;-76
2022/02/01 04:52:56;;;;;;;;;10.00;8.00;;;;;;;;5057939;28;11539;-76
2022/02/01 04:55:27;;;;;;;;;5.25;5.25;;;;;;;;5063250;28;11539;-77
2022/02/01 04:57:55;;;;;;;;;4.25;2.00;;;;;;;;5061806;28;11530;-76
2022/02/01 05:00:25;;;;;;;;;9.00;6.50;;;;;;;;5064782;28;11544;-77
2022/02/01 05:02:53;;;;;;;;;7.00;7.00;;;;;;;;5063660;28;11701;-76
2022/02/01 05:05:28;;;;;;;;;7.50;7.00;;;;;;;;5062032;28;11538;-75
2022/02/01 05:07:59;;;;;;;;;7.00;6.00;;;;;;;;5060666;28;11539;-75
2022/02/01 05:10:26;;;;;;;;;8.00;8.00;;;;;;;;5061744;28;11542;-77
2022/02/01 05:12:56;;;;;;;;;8.50;8.00;;;;;;;;5069644;28;11574;-76
2022/02/01 05:15:24;;;;;;;;;5.75;5.75;;;;;;;;5061773;28;14200;-77
2022/02/01 05:17:55;;;;;;;;;8.00;8.00;;;;;;;;5064862;28;12353;-77
2022/02/01 05:20:43;;;;;;;;;6.00;4.00;;;;;;;;5057037;28;11533;-76
2022/02/01 05:23:11;;;;;;;;;6.00;6.00;;;;;;;;5063896;28;11649;-76
2022/02/01 05:25:40;;;;;;;;;8.75;6.00;;;;;;;;5062332;28;12206;-75
2022/02/01 05:28:08;;;;;;;;;6.50;6.50;;;;;;;;5061837;28;11529;-76
2022/02/01 05:30:35;;;;;;;;;8.00;8.00;;;;;;;;5063883;28;11513;-76
2022/02/01 05:33:02;;;;;;;;;9.00;9.00;;;;;;;;5063547;28;11561;-77
2022/02/01 05:35:31;;;;;;;;;12.00;8.25;;;;;;;;5059313;28;11542;-77
2022/02/01 05:37:58;;;;;;;;;11.00;6.75;;;;;;;;5064655;28;12349;-77
2022/02/01 05:40:27;;;;;;;;;7.25;7.25;;;;;;;;5063177;28;11538;-76
2022/02/01 05:43:01;;;;;;;;;11.25;8.00;;;;;;;;5063920;28;12433;-76
2022/02/01 05:45:29;;;;;;;;;7.50;7.50;;;;;;;;5063597;28;11559;-75
2022/02/01 05:47:56;;;;;;;;;8.00;6.00;;;;;;;;5063736;28;11519;-76
2022/02/01 05:50:24;;;;;;;;;10.00;6.00;;;;;;;;5062670;28;11596;-77
2022/02/01 05:52:51;;;;;;;;;6.25;5.50;;;;;;;;5060463;28;11574;-76
2022/02/01 05:55:18;;;;;;;;;7.00;7.00;;;;;;;;5060425;28;11538;-77
2022/02/01 05:57:47;;;;;;;;;7.00;5.50;;;;;;;;5062999;28;11537;-77
2022/02/01 06:00:17;;;;;;;;;1.25;0.00;;;;;;;;5060337;28;12282;-77
2022/02/01 06:02:46;;;;;;;;;10.00;8.25;;;;;;;;5062543;28;11650;-77
2022/02/01 06:05:13;;;;;;;;;7.50;6.50;;;;;;;;5057798;28;12450;-77
2022/02/01 06:07:40;;;;;;;;;7.50;5.00;;;;;;;;5058081;28;11542;-77
2022/02/01 06:10:09;;;;;;;;;12.00;7.00;;;;;;;;5063259;28;11544;-77
2022/02/01 06:12:41;;;;;;;;;7.50;7.50;;;;;;;;5062995;28;11513;-77
2022/02/01 06:15:10;;;;;;;;;8.25;7.00;;;;;;;;5063357;28;12294;-76
2022/02/01 06:17:38;;;;;;;;;11.75;7.00;;;;;;;;5054488;28;11507;-77
2022/02/01 06:20:07;;;;;;;;;5.50;4.50;;;;;;;;5058742;28;12328;-77
2022/02/01 06:22:34;;;;;;;;;11.00;6.00;;;;;;;;5058509;28;12332;-76
2022/02/01 06:25:02;;;;;;;;;8.75;8.75;;;;;;;;5060893;28;11585;-77
2022/02/01 06:27:29;;;;;;;;;8.50;8.00;;;;;;;;5062288;28;12228;-77
2022/02/01 06:29:57;;;;;;;;;8.25;7.00;;;;;;;;5060821;28;11512;-81
2022/02/01 06:32:27;;;;;;;;;9.75;5.00;;;;;;;;5043559;28;11498;-82
2022/02/01 06:34:55;;;;;;;;;6.50;5.25;;;;;;;;5041897;28;11650;-83
2022/02/01 06:37:23;;;;;;;;;5.75;5.75;;;;;;;;5043405;28;11571;-82
2022/02/01 06:39:50;;;;;;;;;8.25;8.25;;;;;;;;5038050;28;11661;-83
2022/02/01 06:42:17;;;;;;;;;8.50;4.00;;;;;;;;5043412;28;11531;-82
2022/02/01 06:44:45;;;;;;;;;6.00;6.00;;;;;;;;5044324;28;11568;-82
2022/02/01 06:47:12;;;;;;;;;8.75;8.00;;;;;;;;5042626;28;11551;-82
2022/02/01 06:49:42;;;;;;;;;8.25;7.00;;;;;;;;5041790;28;11537;-83
2022/02/01 06:52:09;;;;;;;;;10.50;7.50;;;;;;;;5035189;28;11544;-84
2022/02/01 06:54:36;;;;;;;;;6.00;6.00;;;;;;;;5042964;28;11540;-82
2022/02/01 06:57:04;;;;;;;;;5.50;5.50;;;;;;;;5045211;28;11539;-83
2022/02/01 06:59:31;;;;;;;;;9.50;8.00;;;;;;;;5042847;28;11563;-84
2022/02/01 07:01:59;;;;;;;;;6.00;6.00;;;;;;;;5065789;28;11481;-83
2022/02/01 07:04:26;;;;;;;;;10.00;6.00;;;;;;;;5063092;28;11535;-83
2022/02/01 07:06:56;;;;;;;;;15.75;14.25;;;;;;;;5059701;28;11690;-81
2022/02/01 07:09:23;;;;;;;;;7.50;7.50;;;;;;;;5063142;28;11530;-82
2022/02/01 07:11:51;;;;;;;;;10.50;5.25;;;;;;;;5062629;28;11640;-81
2022/02/01 07:14:18;;;;;;;;;9.00;6.00;;;;;;;;5064617;28;11575;-82
2022/02/01 07:16:45;;;;;;;;;11.25;10.25;;;;;;;;5063623;28;12258;-82
2022/02/01 07:19:13;;;;;;;;;5.25;5.25;;;;;;;;5063936;28;11568;-79
2022/02/01 07:21:40;;;;;;;;;5.00;5.00;;;;;;;;5073802;28;11532;-81
2022/02/01 07:24:15;;;;;;;;;6.50;6.50;;;;;;;;5060504;28;11588;-80
2022/02/01 07:26:52;;;;;;;;;5.00;5.00;;;;;;;;5063141;28;11506;-82
2022/02/01 07:29:19;;;;;;;;;10.25;8.25;;;;;;;;5063085;28;11553;-82
2022/02/01 07:31:46;;;;;;;;;7.50;5.50;;;;;;;;5062533;28;11490;-82
2022/02/01 07:34:15;;;;;;;;;5.00;5.00;;;;;;;;5059715;28;11518;-82
2022/02/01 07:36:42;;;;;;;;;6.50;5.00;;;;;;;;5057580;28;11518;-81
2022/02/01 07:39:12;;;;;;;;;7.50;7.50;;;;;;;;5059785;28;11551;-79
2022/02/01 07:41:40;;;;;;;;;13.00;7.50;;;;;;;;5058075;28;11504;-78
2022/02/01 07:44:07;;;;;;;;;5.50;5.00;;;;;;;;5054920;28;11498;-77
2022/02/01 07:46:34;;;;;;;;;10.00;8.25;;;;;;;;5052517;28;11546;-77
2022/02/01 07:49:02;;;;;;;;;9.25;8.75;;;;;;;;5056217;28;12378;-77
2022/02/01 07:51:29;;;;;;;;;3.50;2.00;;;;;;;;5047368;28;11539;-80
2022/02/01 07:53:56;;;;;;;;;5.75;5.75;;;;;;;;5064327;28;11533;-79
2022/02/01 07:56:25;;;;;;;;;8.50;6.00;;;;;;;;5052732;28;11667;-80
2022/02/01 07:58:52;;;;;;;;;5.25;5.25;;;;;;;;5059972;28;11603;-80
2022/02/01 08:01:20;;;;;;;;;5.25;5.25;;;;;;;;5039710;28;11465;-80
2022/02/01 08:03:47;;;;;;;;;9.75;8.50;;;;;;;;5045309;28;11558;-79
2022/02/01 08:06:15;;;;;;;;;7.50;7.50;;;;;;;;5037816;28;11533;-83
2022/02/01 08:08:42;;;;;;;;;7.50;7.00;;;;;;;;5039093;28;11529;-80
2022/02/01 08:11:14;;;;;;;;;6.50;6.50;;;;;;;;5040971;28;11543;-82
2022/02/01 08:16:54;;;;;;;;;6.00;5.50;;;;;;;;5020386;28;12093;-82
2022/02/01 08:22:24;;;;;;;;;8.50;6.00;;;;;;;;5042132;28;11565;-81
2022/02/01 08:24:52;;;;;;;;;8.25;5.75;;;;;;;;5037907;28;12737;-84
2022/02/01 08:27:19;;;;;;;;;4.00;4.00;;;;;;;;5041562;28;11593;-83
2022/02/01 08:29:47;;;;;;;;;6.50;6.00;;;;;;;;5039681;28;11541;-79
2022/02/01 08:32:15;;;;;;;;;5.25;5.25;;;;;;;;5053875;28;11478;-78
2022/02/01 08:34:42;;;;;;;;;4.75;4.75;;;;;;;;5059300;28;11569;-78
2022/02/01 08:37:11;;;;;;;;;8.25;8.00;;;;;;;;5055929;28;11520;-78
2022/02/01 08:39:38;;;;;;;;;8.75;6.00;;;;;;;;5050241;28;11549;-79
2022/02/01 08:42:07;;;;;;;;;5.00;5.00;;;;;;;;5057507;28;11496;-81
2022/02/01 08:44:35;;;;;;;;;8.25;5.75;;;;;;;;5071965;28;11499;-77
2022/02/01 08:47:05;;;;;;;;;7.00;4.75;;;;;;;;5066257;28;12057;-77
2022/02/01 08:49:33;;;;;;;;;12.25;7.50;;;;;;;;5057754;28;12422;-80
2022/02/01 08:52:03;;;;;;;;;10.25;8.00;;;;;;;;5058009;28;12248;-80
2022/02/01 08:54:33;;;;;;;;;5.00;5.00;;;;;;;;5061494;28;11450;-79
2022/02/01 08:59:45;;;;;;;;;8.00;8.00;;;;;;;;5063206;28;11511;-81
2022/02/01 09:02:17;;;;;;;;;8.00;8.00;;;;;;;;5061724;28;12817;-85
2022/02/01 09:04:44;;;;;;;;;10.75;7.00;;;;;;;;5061691;28;11639;-81
2022/02/01 09:07:12;;;;;;;;;17.00;10.00;;;;;;;;5062589;28;11456;-78
2022/02/01 09:09:39;;;;;;;;;9.75;8.00;;;;;;;;5060187;28;11528;-80
2022/02/01 09:12:08;;;;;;;;;8.25;5.00;;;;;;;;5062505;28;11484;-79
2022/02/01 09:14:35;;;;;;;;;10.75;6.50;;;;;;;;5061214;28;11489;-81
2022/02/01 09:17:04;;;;;;;;;8.00;8.00;;;;;;;;5062645;28;11444;-81
2022/02/01 09:19:33;;;;;;;;;10.50;8.50;;;;;;;;5061963;28;11430;-79
2022/02/01 09:22:03;;;;;;;;;7.50;6.00;;;;;;;;5062607;28;11436;-81
2022/02/01 09:24:30;;;;;;;;;13.75;11.75;;;;;;;;5062265;28;12239;-75
2022/02/01 09:26:58;;;;;;;;;9.00;9.00;;;;;;;;5062334;28;11495;-79
2022/02/01 09:29:26;;;;;;;;;9.50;6.75;;;;;;;;5063269;28;11538;-76
2022/02/01 09:31:55;;;;;;;;;7.75;7.75;;;;;;;;5061156;28;11418;-80
2022/02/01 09:34:23;;;;;;;;;8.50;8.50;;;;;;;;5064847;28;11541;-76
2022/02/01 09:36:54;;;;;;;;;10.50;10.50;;;;;;;;5062982;28;11570;-75
2022/02/01 09:39:23;;;;;;;;;9.75;9.00;;;;;;;;5064236;28;11598;-79
2022/02/01 09:41:51;;;;;;;;;9.00;9.00;;;;;;;;5062296;28;11446;-80
2022/02/01 09:44:19;;;;;;;;;9.00;7.00;;;;;;;;5062157;28;11518;-83
2022/02/01 09:46:48;;;;;;;;;13.25;9.75;;;;;;;;5063896;28;12560;-83
2022/02/01 09:49:19;;;;;;;;;6.50;6.50;;;;;;;;5062526;28;11616;-85
2022/02/01 09:51:48;;;;;;;;;13.00;10.25;;;;;;;;5064470;28;11496;-80
2022/02/01 09:54:17;;;;;;;;;10.75;8.50;;;;;;;;5062096;28;11477;-79
2022/02/01 09:56:44;;;;;;;;;9.25;7.00;;;;;;;;5062050;28;11454;-85
2022/02/01 09:59:15;;;;;;;;;9.00;7.25;;;;;;;;5064210;28;11477;-79
2022/02/01 10:01:46;;;;;;;;;11.50;10.25;;;;;;;;5062256;28;11537;-80
2022/02/01 10:04:14;;;;;;;;;8.25;8.00;;;;;;;;5063743;28;11588;-80
2022/02/01 10:06:42;;;;;;;;;8.50;8.50;;;;;;;;5062681;28;11592;-89
2022/02/01 10:09:11;;;;;;;;;9.00;6.25;;;;;;;;5063332;28;12283;-81
2022/02/01 10:11:42;;;;;;;;;9.50;6.50;;;;;;;;5063955;28;11465;-79
2022/02/01 10:14:14;;;;;;;;;9.00;9.00;;;;;;;;5064795;28;11527;-83
2022/02/01 10:16:49;;;;;;;;;9.50;6.50;;;;;;;;5063730;28;11487;-80
2022/02/01 10:19:18;;;;;;;;;9.25;8.75;;;;;;;;5061967;28;12249;-79
2022/02/01 10:21:56;;;;;;;;;6.25;6.25;;;;;;;;5061689;28;11469;-79
2022/02/01 10:24:31;;;;;;;;;7.25;7.25;;;;;;;;5062089;28;12136;-80
2022/02/01 10:27:13;;;;;;;;;9.00;6.25;;;;;;;;5062168;28;11442;-80
2022/02/01 10:29:58;;;;;;;;;8.25;7.50;;;;;;;;5061426;28;11483;-80
2022/02/01 10:32:28;;;;;;;;;12.25;9.00;;;;;;;;5054984;28;11460;-81
2022/02/01 10:34:58;;;;;;;;;8.50;8.50;;;;;;;;5059928;28;11324;-80
2022/02/01 10:37:26;;;;;;;;;7.00;7.00;;;;;;;;5059311;28;11279;-79
2022/02/01 10:39:57;;;;;;;;;11.75;9.50;;;;;;;;5059180;28;11144;-79
2022/02/01 10:42:27;;;;;;;;;9.50;9.50;;;;;;;;5061360;28;11596;-79
2022/02/01 10:44:57;;;;;;;;;12.75;9.50;;;;;;;;5060410;28;11457;-79
2022/02/01 10:47:34;;;;;;;;;10.00;10.00;;;;;;;;5058129;28;11246;-80
2022/02/01 10:50:08;;;;;;;;;9.00;6.00;;;;;;;;5061321;28;11289;-80
2022/02/01 10:52:36;;;;;;;;;11.25;9.50;;;;;;;;5060627;28;11386;-80
2022/02/01 10:55:06;;;;;;;;;8.25;6.00;;;;;;;;5057218;28;11171;-81
2022/02/01 10:57:35;;;;;;;;;6.00;6.00;;;;;;;;5063020;28;10958;-80
2022/02/01 11:00:03;;;;;;;;;6.25;6.25;;;;;;;;5059554;28;11119;-79
2022/02/01 11:02:31;;;;;;;;;9.25;8.00;;;;;;;;5058186;28;10902;-81
2022/02/01 11:05:00;;;;;;;;;6.00;6.00;;;;;;;;5059419;28;10849;-80
2022/02/01 11:07:27;;;;;;;;;11.00;5.75;;;;;;;;5057996;28;11007;-80
2022/02/01 11:09:55;;;;;;;;;9.75;7.50;;;;;;;;5062306;28;10769;-81
2022/02/01 11:12:23;;;;;;;;;10.25;7.00;;;;;;;;5060689;28;10768;-80
2022/02/01 11:14:52;;;;;;;;;7.00;7.00;;;;;;;;5060708;28;10956;-81
2022/02/01 11:17:21;;;;;;;;;11.75;8.00;;;;;;;;5059401;28;10975;-82
2022/02/01 11:19:51;;;;;;;;;5.75;5.75;;;;;;;;5060821;28;10672;-80
2022/02/01 11:22:30;;;;;;;;;9.00;6.25;;;;;;;;5049533;28;10670;-79
2022/02/01 11:25:09;;;;;;;;;5.00;5.00;;;;;;;;5057005;28;10622;-76
2022/02/01 11:27:47;;;;;;;;;6.75;6.50;;;;;;;;5050145;28;10679;-77
2022/02/01 11:30:19;;;;;;;;;5.25;5.25;;;;;;;;5064702;28;10708;-79
2022/02/01 11:32:55;;;;;;;;;9.00;9.00;;;;;;;;5067558;28;10737;-80
2022/02/01 11:35:25;;;;;;;;;6.75;6.00;;;;;;;;5068993;28;10660;-81
2022/02/01 11:37:55;;;;;;;;;8.50;6.50;;;;;;;;5068112;28;10644;-76
2022/02/01 11:40:24;;;;;;;;;6.25;6.25;;;;;;;;5064496;28;10642;-77
2022/02/01 11:42:59;;;;;;;;;6.50;6.50;;;;;;;;5055429;28;10545;-82
2022/02/01 11:45:38;;;;;;;;;5.00;5.00;;;;;;;;5093452;28;10485;-77
2022/02/01 11:48:18;;;;;;;;;3.00;3.00;;;;;;;;5061707;28;10556;-81
2022/02/01 11:50:57;;;;;;;;;5.00;5.00;;;;;;;;5096157;28;10462;-78
2022/02/01 11:53:26;;;;;;;;;10.25;8.25;;;;;;;;5059405;28;10527;-75
2022/02/01 11:55:55;;;;;;;;;3.00;3.00;;;;;;;;5061432;28;11284;-77
2022/02/01 11:58:30;;;;;;;;;5.00;2.75;;;;;;;;5065106;28;10468;-77
2022/02/01 12:00:59;;;;;;;;;5.75;3.50;;;;;;;;5057850;28;10575;-72
2022/02/01 12:03:29;;;;;;;;;4.00;4.00;;;;;;;;5064747;28;10546;-74
2022/02/01 12:06:00;;;;;;;;;7.25;5.25;;;;;;;;5062622;28;10579;-76
2022/02/01 12:08:33;;;;;;;;;5.00;5.00;;;;;;;;5063532;28;10457;-78
2022/02/01 12:11:02;;;;;;;;;4.50;2.25;;;;;;;;5062988;28;10440;-78
2022/02/01 12:13:32;;;;;;;;;3.50;3.50;;;;;;;;5060496;28;10382;-78
2022/02/01 12:16:02;;;;;;;;;5.00;5.00;;;;;;;;5054693;28;10334;-78
2022/02/01 12:18:34;;;;;;;;;7.25;5.50;;;;;;;;5059758;28;10270;-79
2022/02/01 12:21:14;;;;;;;;;6.00;3.50;;;;;;;;5056798;28;10264;-77
2022/02/01 12:23:48;;;;;;;;;4.00;4.00;;;;;;;;5060395;28;10240;-79
2022/02/01 12:26:20;;;;;;;;;6.75;6.00;;;;;;;;5061552;28;10415;-77
2022/02/01 12:28:48;;;;;;;;;5.50;5.00;;;;;;;;5062312;28;10412;-79
2022/02/01 12:31:17;;;;;;;;;7.25;5.00;;;;;;;;5058548;28;11318;-83
2022/02/01 12:33:46;;;;;;;;;6.50;6.50;;;;;;;;5060258;28;10364;-79
2022/02/01 12:36:15;;;;;;;;;5.00;2.50;;;;;;;;5058300;28;10393;-85
2022/02/01 12:38:48;;;;;;;;;3.50;3.50;;;;;;;;5062382;28;10144;-79
2022/02/01 12:41:17;;;;;;;;;3.50;3.00;;;;;;;;5060245;28;10276;-78
2022/02/01 12:46:44;;;;;;;;;6.50;5.25;;;;;;;;5060537;28;10081;-80
2022/02/01 12:49:13;;;;;;;;;4.00;4.00;;;;;;;;5042278;28;9954;-81
2022/02/01 12:51:41;;;;;;;;;6.00;3.50;;;;;;;;5061480;28;10129;-76
2022/02/01 12:54:10;;;;;;;;;6.00;6.00;;;;;;;;5063234;28;10095;-79
2022/02/01 12:56:38;;;;;;;;;5.25;5.25;;;;;;;;5061746;28;10055;-79
2022/02/01 12:59:05;;;;;;;;;6.00;6.00;;;;;;;;5064470;28;10143;-75
2022/02/01 13:01:34;;;;;;;;;6.00;3.00;;;;;;;;5061924;28;10189;-79
2022/02/01 13:04:03;;;;;;;;;4.25;4.25;;;;;;;;5060151;28;10221;-81
2022/02/01 13:06:33;;;;;;;;;6.25;4.25;;;;;;;;5058130;28;10022;-77
2022/02/01 13:14:45;;;;;;;;;3.25;3.25;;;;;;;;5027674;28;9970;-81
2022/02/01 13:17:25;;;;;;;;;6.00;3.75;;;;;;;;5061003;28;9951;-79
2022/02/01 13:20:10;;;;;;;;;3.25;3.25;;;;;;;;5062268;28;9875;-81
2022/02/01 13:22:49;;;;;;;;;5.50;3.00;;;;;;;;5062547;28;10259;-81
2022/02/01 13:25:16;;;;;;;;;4.50;3.00;;;;;;;;5060358;28;9808;-79
2022/02/01 13:27:44;;;;;;;;;3.50;3.50;;;;;;;;5062728;28;9779;-81
2022/02/01 13:30:13;;;;;;;;;6.25;3.00;;;;;;;;5061860;28;9850;-79
2022/02/01 13:32:43;;;;;;;;;7.00;2.25;;;;;;;;5058645;28;9795;-81
2022/02/01 13:35:13;;;;;;;;;3.00;3.00;;;;;;;;5060514;28;9776;-80
2022/02/01 13:37:46;;;;;;;;;12.50;5.00;;;;;;;;5057940;28;9788;-81
2022/02/01 13:40:25;;;;;;;;;10.50;3.75;;;;;;;;5062161;28;11230;-80
2022/02/01 13:42:52;;;;;;;;;4.25;4.25;;;;;;;;5060226;28;9764;-81
2022/02/01 13:45:20;;;;;;;;;6.75;4.25;;;;;;;;5061444;28;9870;-82
2022/02/01 13:47:50;;;;;;;;;3.25;3.25;;;;;;;;5061862;28;10690;-82
2022/02/01 13:50:21;;;;;;;;;4.00;4.00;;;;;;;;5059405;28;9880;-81
2022/02/01 13:52:58;;;;;;;;;3.00;3.00;;;;;;;;5060865;28;9795;-82
2022/02/01 13:55:27;;;;;;;;;1.00;1.00;;;;;;;;5061690;28;10543;-81
2022/02/01 13:58:01;;;;;;;;;4.00;2.25;;;;;;;;5059659;28;10650;-81
2022/02/01 14:00:32;;;;;;;;;6.00;3.75;;;;;;;;5060606;28;9712;-81
2022/02/01 14:03:10;;;;;;;;;6.00;2.25;;;;;;;;5056413;28;9838;-82
2022/02/01 14:05:40;;;;;;;;;2.00;2.00;;;;;;;;5060515;28;9928;-81
2022/02/01 14:08:26;;;;;;;;;3.00;3.00;;;;;;;;5059579;28;9784;-81
2022/02/01 14:11:07;;;;;;;;;2.25;2.25;;;;;;;;5056200;28;9834;-80
2022/02/01 14:14:00;;;;;;;;;1.00;1.00;;;;;;;;5059323;28;9775;-81
2022/02/01 14:27:45;;;;;;;;;2.00;2.00;;;;;;;;5062261;28;9692;-80
2022/02/01 14:35:42;;;;;;;;;2.25;1.50;;;;;;;;5060009;28;9675;-78
2022/02/01 14:38:31;;;;;;;;;4.75;2.25;;;;;;;;5060093;28;9654;-81
2022/02/01 14:43:50;;;;;;;;;6.25;2.00;;;;;;;;5058414;28;9869;-80
2022/02/01 14:46:17;;;;;;;;;3.00;3.00;;;;;;;;5059940;28;9796;-80
2022/02/01 14:48:45;;;;;;;;;3.00;1.25;;;;;;;;5061193;28;9751;-82
2022/02/01 14:51:12;;;;;;;;;3.25;2.00;;;;;;;;5059137;28;9508;-81
2022/02/01 14:53:42;;;;;;;;;1.00;1.00;;;;;;;;5060145;28;9554;-82
2022/02/01 14:56:14;;;;;;;;;1.00;1.00;;;;;;;;5057629;28;9366;-81
2022/02/01 15:07:12;;;;;;;;;1.00;1.00;;;;;;;;5050962;28;9479;-81
2022/02/01 15:12:40;;;;;;;;;3.00;1.00;;;;;;;;5059122;28;9428;-78
2022/02/01 15:15:10;;;;;;;;;2.33;1.00;;;;;;;;5059507;28;9406;-81
2022/02/01 15:17:37;;;;;;;;;3.00;2.00;;;;;;;;5058337;28;9420;-81
2022/02/01 15:20:06;;;;;;;;;1.00;1.00;;;;;;;;5057636;28;9276;-82
2022/02/01 15:22:33;;;;;;;;;2.00;2.00;;;;;;;;5056961;28;9270;-80
2022/02/01 15:25:02;;;;;;;;;3.00;1.00;;;;;;;;5060946;28;9408;-82
2022/02/01 15:27:29;;;;;;;;;1.67;1.00;;;;;;;;5058009;28;9329;-81
2022/02/01 15:29:58;;;;;;;;;1.33;1.00;;;;;;;;5059886;28;9332;-82
2022/02/01 15:32:25;;;;;;;;;2.00;2.00;;;;;;;;5058614;28;9031;-81
2022/02/01 15:34:52;;;;;;;;;3.00;1.00;;;;;;;;5059906;28;10087;-83
2022/02/01 15:37:26;;;;;;;;;1.00;1.00;;;;;;;;5060908;28;9285;-82
2022/02/01 15:59:30;;;;;;;;;2.00;2.00;;;;;;;;5060007;28;9535;-83
2022/02/01 16:02:02;;;;;;;;;3.00;2.00;;;;;;;;5057917;28;9375;-82
2022/02/01 16:04:30;;;;;;;;;1.00;1.00;;;;;;;;5061348;28;9400;-83
2022/02/01 16:07:00;;;;;;;;;3.00;1.00;;;;;;;;5060022;28;9309;-83
2022/02/01 16:09:36;;;;;;;;;0.00;0.00;;;;;;;;5060674;28;9471;-82
2022/02/01 16:12:06;;;;;;;;;2.25;1.50;;;;;;;;5063278;28;9455;-81
2022/02/01 16:14:37;;;;;;;;;3.50;2.00;;;;;;;;5062364;28;9720;-82
2022/02/01 16:17:04;;;;;;;;;3.00;1.25;;;;;;;;5064359;28;9658;-82
2022/02/01 16:19:32;;;;;;;;;1.00;1.00;;;;;;;;5060095;28;9746;-83
2022/02/01 16:21:59;;;;;;;;;2.00;2.00;;;;;;;;5059551;28;9651;-82
2022/02/01 16:24:26;;;;;;;;;1.00;1.00;;;;;;;;5063795;28;9543;-82
2022/02/01 16:26:54;;;;;;;;;2.00;2.00;;;;;;;;5063221;28;9581;-82
2022/02/01 16:29:21;;;;;;;;;3.00;1.50;;;;;;;;5064124;28;9555;-82
2022/02/01 16:31:50;;;;;;;;;3.00;3.00;;;;;;;;5062826;28;9736;-82
2022/02/01 16:34:17;;;;;;;;;1.00;1.00;;;;;;;;5063245;28;9798;-83
2022/02/01 16:36:45;;;;;;;;;1.25;1.25;;;;;;;;5063621;28;9682;-82
2022/02/01 16:39:14;;;;;;;;;0.00;0.00;;;;;;;;5063261;28;9739;-82
2022/02/01 16:41:43;;;;;;;;;1.25;1.25;;;;;;;;5064098;28;9731;-83
2022/02/01 16:44:12;;;;;;;;;3.00;3.00;;;;;;;;5064264;28;9624;-82
2022/02/01 16:46:42;;;;;;;;;2.25;2.00;;;;;;;;5061368;28;9634;-82
2022/02/01 16:49:13;;;;;;;;;2.00;2.00;;;;;;;;5042038;28;9789;-83
2022/02/01 16:51:41;;;;;;;;;2.75;2.00;;;;;;;;5093208;28;9844;-83
2022/02/01 16:54:12;;;;;;;;;3.75;3.75;;;;;;;;5060170;28;9796;-79
2022/02/01 16:56:43;;;;;;;;;3.00;1.25;;;;;;;;5056655;28;10529;-82
2022/02/01 16:59:19;;;;;;;;;2.00;2.00;;;;;;;;5063826;28;9715;-81
2022/02/01 17:01:47;;;;;;;;;4.50;2.00;;;;;;;;5058295;28;9831;-83
2022/02/01 17:04:17;;;;;;;;;2.00;2.00;;;;;;;;5063040;28;9877;-81
2022/02/01 17:06:45;;;;;;;;;2.00;2.00;;;;;;;;5062172;28;10552;-82
2022/02/01 17:09:13;;;;;;;;;2.50;2.50;;;;;;;;5060746;28;9903;-83
2022/02/01 17:11:53;;;;;;;;;2.00;2.00;;;;;;;;5054808;28;10033;-82